sensor_id;sensor_type;location;lat;lon;timestamp;pressure;altitude;pressure_sealevel;temperature;humidity
46886;BME280;32622;48.202;11.326;2023-07-30T00:01:20;1013.15;;;20.55;36.48
46886;BME280;32622;48.202;11.326;2023-07-30T00:03:22;1013.27;;;20.00;37.21
46886;BME280;32622;48.202;11.326;2023-07-30T00:05:24;1013.16;;;20.69;36.78
46886;BME280;32622;48.202;11.326;2023-07-30T00:07:26;1013.12;;;20.69;36.67
46886;BME280;32622;48.202;11.326;2023-07-30T00:09:29;1013.03;;;20.84;36.47
46886;BME280;32622;48.202;11.326;2023-07-30T00:11:31;1013.07;;;20.75;36.38
46886;BME280;32622;48.202;11.326;2023-07-30T00:13:33;1013.02;;;21.29;36.14
46886;BME280;32622;48.202;11.326;2023-07-30T00:15:35;1013.11;;;20.69;36.42
46886;BME280;32622;48.202;11.326;2023-07-30T00:17:37;1013.10;;;20.43;36.70
46886;BME280;32622;48.202;11.326;2023-07-30T00:19:39;1013.01;;;20.62;37.21
46886;BME280;32622;48.202;11.326;2023-07-30T00:21:41;1013.09;;;20.43;37.03
46886;BME280;32622;48.202;11.326;2023-07-30T00:23:43;1012.99;;;20.91;36.76
46886;BME280;32622;48.202;11.326;2023-07-30T00:25:45;1013.07;;;20.53;36.58
46886;BME280;32622;48.202;11.326;2023-07-30T00:27:47;1013.03;;;20.56;36.80
46886;BME280;32622;48.202;11.326;2023-07-30T00:29:50;1012.96;;;20.85;36.64
46886;BME280;32622;48.202;11.326;2023-07-30T00:31:52;1012.96;;;20.81;36.91
46886;BME280;32622;48.202;11.326;2023-07-30T00:33:54;1013.01;;;20.60;37.10
46886;BME280;32622;48.202;11.326;2023-07-30T00:35:56;1012.86;;;21.32;36.75
46886;BME280;32622;48.202;11.326;2023-07-30T00:37:58;1013.07;;;20.61;36.46
46886;BME280;32622;48.202;11.326;2023-07-30T00:40:01;1012.98;;;21.16;36.39
46886;BME280;32622;48.202;11.326;2023-07-30T00:42:04;1013.06;;;20.80;36.79
46886;BME280;32622;48.202;11.326;2023-07-30T00:44:06;1013.11;;;20.89;36.58
46886;BME280;32622;48.202;11.326;2023-07-30T00:46:08;1013.07;;;21.27;37.36
46886;BME280;32622;48.202;11.326;2023-07-30T00:48:11;1013.22;;;20.44;37.79
46886;BME280;32622;48.202;11.326;2023-07-30T00:50:15;1013.09;;;21.06;37.14
46886;BME280;32622;48.202;11.326;2023-07-30T00:52:21;1013.24;;;20.52;37.47
46886;BME280;32622;48.202;11.326;2023-07-30T00:54:25;1013.27;;;20.51;37.18
46886;BME280;32622;48.202;11.326;2023-07-30T00:56:27;1012.98;;;21.70;36.43
46886;BME280;32622;48.202;11.326;2023-07-30T00:58:30;1012.97;;;21.67;36.27
46886;BME280;32622;48.202;11.326;2023-07-30T01:00:33;1013.18;;;20.64;36.81
46886;BME280;32622;48.202;11.326;2023-07-30T01:02:35;1013.07;;;21.29;36.35
46886;BME280;32622;48.202;11.326;2023-07-30T01:04:38;1013.14;;;21.04;36.22
46886;BME280;32622;48.202;11.326;2023-07-30T01:06:40;1013.12;;;20.86;36.52
46886;BME280;32622;48.202;11.326;2023-07-30T01:08:43;1013.01;;;21.18;35.99
46886;BME280;32622;48.202;11.326;2023-07-30T01:10:45;1013.08;;;20.78;36.47
46886;BME280;32622;48.202;11.326;2023-07-30T01:12:48;1013.01;;;21.06;36.53
46886;BME280;32622;48.202;11.326;2023-07-30T01:14:51;1013.02;;;20.83;36.50
46886;BME280;32622;48.202;11.326;2023-07-30T01:16:56;1012.99;;;21.06;36.44
46886;BME280;32622;48.202;11.326;2023-07-30T01:18:58;1013.01;;;20.86;36.40
46886;BME280;32622;48.202;11.326;2023-07-30T01:21:00;1013.01;;;20.82;36.36
46886;BME280;32622;48.202;11.326;2023-07-30T01:23:03;1013.07;;;20.79;36.27
46886;BME280;32622;48.202;11.326;2023-07-30T01:25:05;1013.12;;;20.58;36.80
46886;BME280;32622;48.202;11.326;2023-07-30T01:27:13;1013.08;;;20.62;36.47
46886;BME280;32622;48.202;11.326;2023-07-30T01:29:27;1012.99;;;21.01;36.44
46886;BME280;32622;48.202;11.326;2023-07-30T01:31:31;1012.95;;;21.16;36.15
46886;BME280;32622;48.202;11.326;2023-07-30T01:33:34;1012.96;;;20.94;36.25
46886;BME280;32622;48.202;11.326;2023-07-30T01:35:38;1012.98;;;20.81;36.49
46886;BME280;32622;48.202;11.326;2023-07-30T01:37:44;1012.95;;;20.99;36.64
46886;BME280;32622;48.202;11.326;2023-07-30T01:39:48;1013.03;;;20.70;36.48
46886;BME280;32622;48.202;11.326;2023-07-30T01:41:53;1013.10;;;20.63;36.73
46886;BME280;32622;48.202;11.326;2023-07-30T01:43:55;1013.18;;;20.32;36.71
46886;BME280;32622;48.202;11.326;2023-07-30T01:45:57;1013.10;;;21.09;36.57
46886;BME280;32622;48.202;11.326;2023-07-30T01:47:59;1013.22;;;20.68;36.76
46886;BME280;32622;48.202;11.326;2023-07-30T01:50:02;1013.24;;;20.54;36.97
46886;BME280;32622;48.202;11.326;2023-07-30T01:52:04;1013.26;;;20.59;36.97
46886;BME280;32622;48.202;11.326;2023-07-30T01:54:06;1013.30;;;20.46;37.13
46886;BME280;32622;48.202;11.326;2023-07-30T01:56:09;1013.29;;;20.51;37.51
46886;BME280;32622;48.202;11.326;2023-07-30T01:58:11;1013.34;;;20.23;37.76
46886;BME280;32622;48.202;11.326;2023-07-30T02:00:19;1013.79;;;18.31;40.36
46886;BME280;32622;48.202;11.326;2023-07-30T02:02:21;1013.48;;;19.62;38.61
46886;BME280;32622;48.202;11.326;2023-07-30T02:04:23;1013.58;;;19.27;38.95
46886;BME280;32622;48.202;11.326;2023-07-30T02:06:25;1013.51;;;19.40;38.46
46886;BME280;32622;48.202;11.326;2023-07-30T02:08:27;1013.40;;;20.15;38.59
46886;BME280;32622;48.202;11.326;2023-07-30T02:10:29;1013.52;;;19.63;38.77
46886;BME280;32622;48.202;11.326;2023-07-30T02:12:32;1013.57;;;19.63;38.65
46886;BME280;32622;48.202;11.326;2023-07-30T02:14:34;1013.52;;;19.72;38.58
46886;BME280;32622;48.202;11.326;2023-07-30T02:16:36;1013.41;;;20.16;38.61
46886;BME280;32622;48.202;11.326;2023-07-30T02:18:38;1013.61;;;19.46;39.13
46886;BME280;32622;48.202;11.326;2023-07-30T02:20:40;1013.77;;;18.90;39.70
46886;BME280;32622;48.202;11.326;2023-07-30T02:22:42;1013.51;;;20.03;38.89
46886;BME280;32622;48.202;11.326;2023-07-30T02:24:44;1013.66;;;19.23;39.13
46886;BME280;32622;48.202;11.326;2023-07-30T02:26:46;1013.61;;;19.38;39.16
46886;BME280;32622;48.202;11.326;2023-07-30T02:28:48;1013.61;;;19.42;39.08
46886;BME280;32622;48.202;11.326;2023-07-30T02:30:51;1013.59;;;19.58;38.76
46886;BME280;32622;48.202;11.326;2023-07-30T02:32:53;1013.50;;;20.02;38.35
46886;BME280;32622;48.202;11.326;2023-07-30T02:34:55;1013.68;;;19.19;39.07
46886;BME280;32622;48.202;11.326;2023-07-30T02:36:57;1013.54;;;19.82;38.56
46886;BME280;32622;48.202;11.326;2023-07-30T02:38:59;1013.49;;;20.20;38.32
46886;BME280;32622;48.202;11.326;2023-07-30T02:41:02;1013.55;;;20.10;38.12
46886;BME280;32622;48.202;11.326;2023-07-30T02:43:04;1013.55;;;19.94;38.31
46886;BME280;32622;48.202;11.326;2023-07-30T02:45:06;1013.63;;;19.82;38.68
46886;BME280;32622;48.202;11.326;2023-07-30T02:47:09;1013.64;;;20.05;38.94
46886;BME280;32622;48.202;11.326;2023-07-30T02:49:11;1013.79;;;19.56;39.31
46886;BME280;32622;48.202;11.326;2023-07-30T02:51:13;1013.78;;;19.87;39.50
46886;BME280;32622;48.202;11.326;2023-07-30T02:53:15;1013.86;;;19.80;39.72
46886;BME280;32622;48.202;11.326;2023-07-30T02:55:17;1014.10;;;18.87;41.16
46886;BME280;32622;48.202;11.326;2023-07-30T02:57:19;1013.99;;;19.34;40.50
46886;BME280;32622;48.202;11.326;2023-07-30T02:59:21;1013.93;;;19.69;40.15
46886;BME280;32622;48.202;11.326;2023-07-30T03:01:23;1013.96;;;19.69;40.17
46886;BME280;32622;48.202;11.326;2023-07-30T03:03:26;1013.94;;;19.79;40.59
46886;BME280;32622;48.202;11.326;2023-07-30T03:05:28;1014.02;;;19.33;40.76
46886;BME280;32622;48.202;11.326;2023-07-30T03:07:30;1013.96;;;19.34;40.68
46886;BME280;32622;48.202;11.326;2023-07-30T03:09:32;1013.88;;;19.50;40.50
46886;BME280;32622;48.202;11.326;2023-07-30T03:11:34;1013.95;;;19.21;40.49
46886;BME280;32622;48.202;11.326;2023-07-30T03:13:36;1013.89;;;19.34;39.96
46886;BME280;32622;48.202;11.326;2023-07-30T03:15:38;1013.70;;;20.16;39.35
46886;BME280;32622;48.202;11.326;2023-07-30T03:17:40;1013.77;;;19.98;40.18
46886;BME280;32622;48.202;11.326;2023-07-30T03:19:43;1013.80;;;19.83;39.81
46886;BME280;32622;48.202;11.326;2023-07-30T03:21:45;1013.66;;;20.32;39.21
46886;BME280;32622;48.202;11.326;2023-07-30T03:23:47;1013.63;;;20.25;39.31
46886;BME280;32622;48.202;11.326;2023-07-30T03:25:49;1013.60;;;20.43;38.62
46886;BME280;32622;48.202;11.326;2023-07-30T03:27:51;1013.58;;;20.41;38.52
46886;BME280;32622;48.202;11.326;2023-07-30T03:29:53;1013.60;;;20.41;38.55
46886;BME280;32622;48.202;11.326;2023-07-30T03:31:55;1013.60;;;20.37;38.62
46886;BME280;32622;48.202;11.326;2023-07-30T03:33:58;1013.73;;;19.70;38.77
46886;BME280;32622;48.202;11.326;2023-07-30T03:36:01;1013.54;;;20.38;39.04
46886;BME280;32622;48.202;11.326;2023-07-30T03:38:03;1013.55;;;20.28;38.88
46886;BME280;32622;48.202;11.326;2023-07-30T03:40:06;1013.52;;;20.40;38.77
46886;BME280;32622;48.202;11.326;2023-07-30T03:42:08;1013.55;;;20.36;38.80
46886;BME280;32622;48.202;11.326;2023-07-30T03:44:11;1013.56;;;20.41;38.74
46886;BME280;32622;48.202;11.326;2023-07-30T03:46:13;1013.53;;;20.78;38.06
46886;BME280;32622;48.202;11.326;2023-07-30T03:48:15;1013.54;;;20.46;38.42
46886;BME280;32622;48.202;11.326;2023-07-30T03:50:17;1013.53;;;20.50;38.33
46886;BME280;32622;48.202;11.326;2023-07-30T03:52:19;1013.58;;;20.38;38.51
46886;BME280;32622;48.202;11.326;2023-07-30T03:54:21;1013.71;;;20.08;38.82
46886;BME280;32622;48.202;11.326;2023-07-30T03:56:23;1013.78;;;19.91;38.63
46886;BME280;32622;48.202;11.326;2023-07-30T03:58:25;1013.61;;;20.47;38.39
46886;BME280;32622;48.202;11.326;2023-07-30T04:00:27;1013.65;;;20.41;38.49
46886;BME280;32622;48.202;11.326;2023-07-30T04:02:29;1013.73;;;20.13;38.33
46886;BME280;32622;48.202;11.326;2023-07-30T04:04:32;1013.63;;;20.49;38.45
46886;BME280;32622;48.202;11.326;2023-07-30T04:06:34;1013.63;;;20.58;38.33
46886;BME280;32622;48.202;11.326;2023-07-30T04:08:36;1013.63;;;20.54;38.22
46886;BME280;32622;48.202;11.326;2023-07-30T04:10:38;1013.61;;;20.76;38.11
46886;BME280;32622;48.202;11.326;2023-07-30T04:12:40;1013.72;;;20.12;38.13
46886;BME280;32622;48.202;11.326;2023-07-30T04:14:42;1013.59;;;20.63;38.07
46886;BME280;32622;48.202;11.326;2023-07-30T04:16:44;1013.74;;;19.96;38.38
46886;BME280;32622;48.202;11.326;2023-07-30T04:18:46;1013.62;;;20.82;38.00
46886;BME280;32622;48.202;11.326;2023-07-30T04:20:49;1013.67;;;20.78;37.99
46886;BME280;32622;48.202;11.326;2023-07-30T04:22:51;1013.70;;;20.82;38.26
46886;BME280;32622;48.202;11.326;2023-07-30T04:24:53;1013.76;;;20.50;37.82
46886;BME280;32622;48.202;11.326;2023-07-30T04:26:55;1013.72;;;20.96;37.60
46886;BME280;32622;48.202;11.326;2023-07-30T04:28:57;1013.75;;;20.90;37.59
46886;BME280;32622;48.202;11.326;2023-07-30T04:30:59;1013.68;;;21.22;37.34
46886;BME280;32622;48.202;11.326;2023-07-30T04:33:02;1013.86;;;20.28;37.38
46886;BME280;32622;48.202;11.326;2023-07-30T04:35:05;1013.87;;;20.40;37.47
46886;BME280;32622;48.202;11.326;2023-07-30T04:37:07;1013.74;;;21.02;37.31
46886;BME280;32622;48.202;11.326;2023-07-30T04:39:09;1013.83;;;20.79;37.42
46886;BME280;32622;48.202;11.326;2023-07-30T04:41:11;1013.85;;;20.93;37.60
46886;BME280;32622;48.202;11.326;2023-07-30T04:43:13;1014.04;;;20.04;38.47
46886;BME280;32622;48.202;11.326;2023-07-30T04:45:16;1014.10;;;19.91;38.75
46886;BME280;32622;48.202;11.326;2023-07-30T04:47:18;1014.06;;;20.18;38.36
46886;BME280;32622;48.202;11.326;2023-07-30T04:49:20;1014.22;;;19.56;38.80
46886;BME280;32622;48.202;11.326;2023-07-30T04:51:22;1014.19;;;19.85;38.79
46886;BME280;32622;48.202;11.326;2023-07-30T04:53:24;1014.19;;;19.98;39.08
46886;BME280;32622;48.202;11.326;2023-07-30T04:55:26;1014.22;;;19.99;39.38
46886;BME280;32622;48.202;11.326;2023-07-30T04:57:28;1014.18;;;20.24;38.80
46886;BME280;32622;48.202;11.326;2023-07-30T04:59:30;1014.19;;;20.10;38.40
46886;BME280;32622;48.202;11.326;2023-07-30T05:01:32;1014.08;;;20.53;38.36
46886;BME280;32622;48.202;11.326;2023-07-30T05:03:35;1014.04;;;20.77;37.91
46886;BME280;32622;48.202;11.326;2023-07-30T05:05:37;1014.09;;;20.41;37.67
46886;BME280;32622;48.202;11.326;2023-07-30T05:07:39;1014.17;;;20.10;38.71
46886;BME280;32622;48.202;11.326;2023-07-30T05:09:41;1014.21;;;19.85;38.80
46886;BME280;32622;48.202;11.326;2023-07-30T05:11:43;1014.29;;;19.58;39.22
46886;BME280;32622;48.202;11.326;2023-07-30T05:13:45;1014.33;;;19.38;39.44
46886;BME280;32622;48.202;11.326;2023-07-30T05:15:47;1014.22;;;19.96;39.31
46886;BME280;32622;48.202;11.326;2023-07-30T05:17:49;1014.23;;;19.88;38.68
46886;BME280;32622;48.202;11.326;2023-07-30T05:19:51;1014.09;;;20.64;38.13
46886;BME280;32622;48.202;11.326;2023-07-30T05:21:53;1014.09;;;20.76;37.75
46886;BME280;32622;48.202;11.326;2023-07-30T05:23:56;1014.16;;;20.54;37.48
46886;BME280;32622;48.202;11.326;2023-07-30T05:25:58;1014.22;;;20.43;38.10
46886;BME280;32622;48.202;11.326;2023-07-30T05:28:00;1014.27;;;20.26;37.78
46886;BME280;32622;48.202;11.326;2023-07-30T05:30:03;1014.24;;;20.39;37.83
46886;BME280;32622;48.202;11.326;2023-07-30T05:32:06;1014.13;;;20.88;37.45
46886;BME280;32622;48.202;11.326;2023-07-30T05:34:08;1014.03;;;21.32;37.30
46886;BME280;32622;48.202;11.326;2023-07-30T05:36:10;1013.83;;;22.24;35.98
46886;BME280;32622;48.202;11.326;2023-07-30T05:38:13;1013.83;;;22.38;35.08
46886;BME280;32622;48.202;11.326;2023-07-30T05:40:15;1013.74;;;22.51;35.31
46886;BME280;32622;48.202;11.326;2023-07-30T05:42:17;1013.84;;;22.17;35.13
46886;BME280;32622;48.202;11.326;2023-07-30T05:44:19;1013.84;;;22.25;35.23
46886;BME280;32622;48.202;11.326;2023-07-30T05:46:21;1013.73;;;22.63;34.93
46886;BME280;32622;48.202;11.326;2023-07-30T05:48:23;1013.85;;;22.31;34.32
46886;BME280;32622;48.202;11.326;2023-07-30T05:50:25;1013.66;;;23.18;33.66
46886;BME280;32622;48.202;11.326;2023-07-30T05:52:27;1013.72;;;22.64;34.18
46886;BME280;32622;48.202;11.326;2023-07-30T05:54:30;1013.73;;;22.64;33.98
46886;BME280;32622;48.202;11.326;2023-07-30T05:56:32;1013.67;;;23.13;33.76
46886;BME280;32622;48.202;11.326;2023-07-30T05:58:34;1013.64;;;23.34;33.23
46886;BME280;32622;48.202;11.326;2023-07-30T06:00:36;1013.58;;;23.86;32.92
46886;BME280;32622;48.202;11.326;2023-07-30T06:02:38;1013.64;;;23.44;32.20
46886;BME280;32622;48.202;11.326;2023-07-30T06:04:41;1013.63;;;23.41;32.81
46886;BME280;32622;48.202;11.326;2023-07-30T06:06:43;1013.53;;;24.35;32.41
46886;BME280;32622;48.202;11.326;2023-07-30T06:08:45;1013.46;;;24.46;31.49
46886;BME280;32622;48.202;11.326;2023-07-30T06:10:47;1013.33;;;25.03;31.27
46886;BME280;32622;48.202;11.326;2023-07-30T06:12:49;1013.38;;;24.73;31.37
46886;BME280;32622;48.202;11.326;2023-07-30T06:14:51;1013.49;;;24.34;31.29
46886;BME280;32622;48.202;11.326;2023-07-30T06:16:53;1013.46;;;24.42;31.11
46886;BME280;32622;48.202;11.326;2023-07-30T06:18:56;1013.51;;;24.38;31.23
46886;BME280;32622;48.202;11.326;2023-07-30T06:20:58;1013.33;;;24.78;31.27
46886;BME280;32622;48.202;11.326;2023-07-30T06:23:01;1013.48;;;24.30;31.31
46886;BME280;32622;48.202;11.326;2023-07-30T06:25:04;1013.41;;;24.59;31.11
46886;BME280;32622;48.202;11.326;2023-07-30T06:27:06;1013.48;;;24.38;31.27
46886;BME280;32622;48.202;11.326;2023-07-30T06:29:08;1013.35;;;25.04;31.06
46886;BME280;32622;48.202;11.326;2023-07-30T06:31:10;1013.44;;;24.62;31.25
46886;BME280;32622;48.202;11.326;2023-07-30T06:33:13;1013.38;;;25.02;30.42
46886;BME280;32622;48.202;11.326;2023-07-30T06:35:51;1013.39;;;24.96;30.86
46886;BME280;32622;48.202;11.326;2023-07-30T06:37:53;1013.50;;;24.76;30.66
46886;BME280;32622;48.202;11.326;2023-07-30T06:39:55;1013.43;;;25.15;30.75
46886;BME280;32622;48.202;11.326;2023-07-30T06:41:58;1013.54;;;24.61;31.31
46886;BME280;32622;48.202;11.326;2023-07-30T06:44:00;1013.42;;;25.09;30.59
46886;BME280;32622;48.202;11.326;2023-07-30T06:46:02;1013.51;;;24.81;31.27
46886;BME280;32622;48.202;11.326;2023-07-30T06:48:04;1013.44;;;24.91;30.60
46886;BME280;32622;48.202;11.326;2023-07-30T06:50:07;1013.42;;;25.08;31.05
46886;BME280;32622;48.202;11.326;2023-07-30T06:52:09;1013.46;;;24.86;30.30
46886;BME280;32622;48.202;11.326;2023-07-30T06:54:11;1013.28;;;25.59;30.40
46886;BME280;32622;48.202;11.326;2023-07-30T06:56:13;1013.50;;;24.93;30.14
46886;BME280;32622;48.202;11.326;2023-07-30T06:58:15;1013.47;;;25.10;30.43
46886;BME280;32622;48.202;11.326;2023-07-30T07:00:18;1013.50;;;25.02;30.56
46886;BME280;32622;48.202;11.326;2023-07-30T07:02:20;1013.21;;;26.39;29.88
46886;BME280;32622;48.202;11.326;2023-07-30T07:04:22;1013.24;;;26.08;29.63
46886;BME280;32622;48.202;11.326;2023-07-30T07:06:24;1013.32;;;25.72;29.89
46886;BME280;32622;48.202;11.326;2023-07-30T07:08:26;1013.21;;;26.35;29.58
46886;BME280;32622;48.202;11.326;2023-07-30T07:10:28;1013.27;;;26.06;29.61
46886;BME280;32622;48.202;11.326;2023-07-30T07:12:30;1013.17;;;26.76;29.23
46886;BME280;32622;48.202;11.326;2023-07-30T07:14:32;1013.10;;;26.97;28.21
46886;BME280;32622;48.202;11.326;2023-07-30T07:16:35;1013.49;;;24.99;29.68
46886;BME280;32622;48.202;11.326;2023-07-30T07:18:37;1013.17;;;26.79;28.95
46886;BME280;32622;48.202;11.326;2023-07-30T07:20:39;1013.05;;;27.60;28.36
46886;BME280;32622;48.202;11.326;2023-07-30T07:22:41;1013.14;;;27.11;28.19
46886;BME280;32622;48.202;11.326;2023-07-30T07:24:44;1013.33;;;26.22;28.59
46886;BME280;32622;48.202;11.326;2023-07-30T07:26:46;1013.31;;;26.38;28.39
46886;BME280;32622;48.202;11.326;2023-07-30T07:28:48;1013.16;;;26.84;28.16
46886;BME280;32622;48.202;11.326;2023-07-30T07:30:50;1013.41;;;25.77;28.77
46886;BME280;32622;48.202;11.326;2023-07-30T07:32:53;1013.37;;;26.08;29.19
46886;BME280;32622;48.202;11.326;2023-07-30T07:34:55;1013.30;;;26.53;28.15
46886;BME280;32622;48.202;11.326;2023-07-30T07:36:57;1013.06;;;27.63;28.10
46886;BME280;32622;48.202;11.326;2023-07-30T07:38:59;1013.11;;;27.84;27.66
46886;BME280;32622;48.202;11.326;2023-07-30T07:41:02;1013.21;;;27.22;27.82
46886;BME280;32622;48.202;11.326;2023-07-30T07:43:04;1013.24;;;27.06;27.01
46886;BME280;32622;48.202;11.326;2023-07-30T07:45:07;1012.98;;;28.34;27.37
46886;BME280;32622;48.202;11.326;2023-07-30T07:47:09;1013.21;;;27.36;26.45
46886;BME280;32622;48.202;11.326;2023-07-30T07:49:11;1013.30;;;26.90;26.68
46886;BME280;32622;48.202;11.326;2023-07-30T07:51:13;1013.12;;;27.76;26.75
46886;BME280;32622;48.202;11.326;2023-07-30T07:53:16;1013.14;;;27.54;26.91
46886;BME280;32622;48.202;11.326;2023-07-30T07:55:18;1013.14;;;27.53;26.66
46886;BME280;32622;48.202;11.326;2023-07-30T07:57:20;1013.24;;;26.96;26.72
46886;BME280;32622;48.202;11.326;2023-07-30T07:59:23;1013.43;;;26.09;27.37
46886;BME280;32622;48.202;11.326;2023-07-30T08:01:25;1013.49;;;25.97;27.70
46886;BME280;32622;48.202;11.326;2023-07-30T08:03:27;1013.58;;;25.62;28.36
46886;BME280;32622;48.202;11.326;2023-07-30T08:05:29;1013.52;;;25.69;28.82
46886;BME280;32622;48.202;11.326;2023-07-30T08:07:31;1013.55;;;25.57;28.22
46886;BME280;32622;48.202;11.326;2023-07-30T08:09:33;1013.56;;;25.66;28.28
46886;BME280;32622;48.202;11.326;2023-07-30T08:11:35;1013.49;;;25.97;28.21
46886;BME280;32622;48.202;11.326;2023-07-30T08:13:38;1013.55;;;25.72;28.66
46886;BME280;32622;48.202;11.326;2023-07-30T08:15:40;1013.43;;;26.53;28.24
46886;BME280;32622;48.202;11.326;2023-07-30T08:17:43;1013.27;;;27.06;28.25
46886;BME280;32622;48.202;11.326;2023-07-30T08:19:45;1013.58;;;25.52;27.82
46886;BME280;32622;48.202;11.326;2023-07-30T08:21:47;1013.51;;;26.03;27.55
46886;BME280;32622;48.202;11.326;2023-07-30T08:23:49;1013.63;;;25.34;28.43
46886;BME280;32622;48.202;11.326;2023-07-30T08:25:51;1013.68;;;25.31;28.03
46886;BME280;32622;48.202;11.326;2023-07-30T08:27:53;1013.40;;;26.31;27.16
46886;BME280;32622;48.202;11.326;2023-07-30T08:29:55;1013.64;;;25.34;27.95
46886;BME280;32622;48.202;11.326;2023-07-30T08:31:57;1013.33;;;26.67;27.27
46886;BME280;32622;48.202;11.326;2023-07-30T08:33:59;1013.40;;;26.26;26.98
46886;BME280;32622;48.202;11.326;2023-07-30T08:36:02;1013.30;;;26.66;27.45
46886;BME280;32622;48.202;11.326;2023-07-30T08:38:08;1013.22;;;27.06;27.40
46886;BME280;32622;48.202;11.326;2023-07-30T08:40:11;1013.46;;;26.12;27.46
46886;BME280;32622;48.202;11.326;2023-07-30T08:42:13;1013.55;;;25.58;27.67
46886;BME280;32622;48.202;11.326;2023-07-30T08:44:16;1013.45;;;25.76;28.47
46886;BME280;32622;48.202;11.326;2023-07-30T08:46:18;1013.35;;;26.24;27.87
46886;BME280;32622;48.202;11.326;2023-07-30T08:48:20;1013.19;;;27.01;27.28
46886;BME280;32622;48.202;11.326;2023-07-30T08:50:23;1013.11;;;27.14;26.96
46886;BME280;32622;48.202;11.326;2023-07-30T08:52:26;1013.21;;;26.92;26.56
46886;BME280;32622;48.202;11.326;2023-07-30T08:54:31;1013.47;;;25.51;28.05
46886;BME280;32622;48.202;11.326;2023-07-30T08:56:33;1013.21;;;26.69;27.25
46886;BME280;32622;48.202;11.326;2023-07-30T08:58:36;1013.46;;;25.38;27.75
46886;BME280;32622;48.202;11.326;2023-07-30T09:00:41;1013.22;;;26.21;26.50
46886;BME280;32622;48.202;11.326;2023-07-30T09:02:48;1012.99;;;27.11;26.77
46886;BME280;32622;48.202;11.326;2023-07-30T09:04:53;1013.17;;;26.08;26.64
46886;BME280;32622;48.202;11.326;2023-07-30T09:07:00;1012.96;;;26.82;25.93
46886;BME280;32622;48.202;11.326;2023-07-30T09:09:02;1012.78;;;27.63;26.19
46886;BME280;32622;48.202;11.326;2023-07-30T09:11:08;1012.72;;;27.45;24.81
46886;BME280;32622;48.202;11.326;2023-07-30T09:13:10;1012.79;;;27.53;26.10
46886;BME280;32622;48.202;11.326;2023-07-30T09:15:12;1013.07;;;25.83;26.22
46886;BME280;32622;48.202;11.326;2023-07-30T09:17:17;1012.85;;;27.07;26.17
46886;BME280;32622;48.202;11.326;2023-07-30T09:19:19;1012.98;;;26.25;26.28
46886;BME280;32622;48.202;11.326;2023-07-30T09:21:30;1012.89;;;26.54;25.87
46886;BME280;32622;48.202;11.326;2023-07-30T09:23:32;1013.05;;;25.86;25.18
46886;BME280;32622;48.202;11.326;2023-07-30T09:25:34;1012.84;;;26.90;25.46
46886;BME280;32622;48.202;11.326;2023-07-30T09:27:37;1012.99;;;26.36;25.60
46886;BME280;32622;48.202;11.326;2023-07-30T09:29:50;1012.94;;;26.38;25.58
46886;BME280;32622;48.202;11.326;2023-07-30T09:31:54;1012.93;;;26.54;26.24
46886;BME280;32622;48.202;11.326;2023-07-30T09:33:56;1012.88;;;27.04;26.11
46886;BME280;32622;48.202;11.326;2023-07-30T09:36:00;1012.89;;;27.04;25.66
46886;BME280;32622;48.202;11.326;2023-07-30T09:38:04;1012.86;;;27.28;24.97
46886;BME280;32622;48.202;11.326;2023-07-30T09:40:08;1012.89;;;26.72;25.64
46886;BME280;32622;48.202;11.326;2023-07-30T09:42:10;1012.81;;;26.94;25.06
46886;BME280;32622;48.202;11.326;2023-07-30T09:44:13;1012.79;;;26.97;25.74
46886;BME280;32622;48.202;11.326;2023-07-30T09:46:15;1012.57;;;27.47;24.75
46886;BME280;32622;48.202;11.326;2023-07-30T09:48:17;1012.55;;;27.65;24.54
46886;BME280;32622;48.202;11.326;2023-07-30T09:50:19;1012.59;;;27.41;24.77
46886;BME280;32622;48.202;11.326;2023-07-30T09:52:22;1012.80;;;27.28;24.24
46886;BME280;32622;48.202;11.326;2023-07-30T09:54:24;1012.76;;;27.18;23.64
46886;BME280;32622;48.202;11.326;2023-07-30T09:56:26;1012.81;;;26.97;24.44
46886;BME280;32622;48.202;11.326;2023-07-30T09:58:28;1012.77;;;27.18;24.96
46886;BME280;32622;48.202;11.326;2023-07-30T10:00:30;1012.79;;;27.05;24.61
46886;BME280;32622;48.202;11.326;2023-07-30T10:02:37;1012.78;;;27.39;24.70
46886;BME280;32622;48.202;11.326;2023-07-30T10:04:43;1012.89;;;26.90;25.04
46886;BME280;32622;48.202;11.326;2023-07-30T10:06:49;1012.87;;;27.00;24.78
46886;BME280;32622;48.202;11.326;2023-07-30T10:08:53;1012.75;;;27.63;24.77
46886;BME280;32622;48.202;11.326;2023-07-30T10:10:59;1012.78;;;27.60;24.43
46886;BME280;32622;48.202;11.326;2023-07-30T10:13:06;1012.92;;;26.94;25.03
46886;BME280;32622;48.202;11.326;2023-07-30T10:15:10;1012.93;;;27.08;24.86
46886;BME280;32622;48.202;11.326;2023-07-30T10:17:12;1013.08;;;26.52;24.98
46886;BME280;32622;48.202;11.326;2023-07-30T10:19:15;1012.94;;;27.30;25.11
46886;BME280;32622;48.202;11.326;2023-07-30T10:21:23;1012.99;;;26.97;25.70
46886;BME280;32622;48.202;11.326;2023-07-30T10:23:27;1013.11;;;26.55;25.84
46886;BME280;32622;48.202;11.326;2023-07-30T10:25:30;1013.03;;;26.92;26.11
46886;BME280;32622;48.202;11.326;2023-07-30T10:27:43;1013.05;;;26.93;26.37
46886;BME280;32622;48.202;11.326;2023-07-30T10:29:45;1012.90;;;27.44;25.68
46886;BME280;32622;48.202;11.326;2023-07-30T10:31:52;1012.80;;;27.85;25.61
46886;BME280;32622;48.202;11.326;2023-07-30T10:33:55;1012.86;;;27.40;25.72
46886;BME280;32622;48.202;11.326;2023-07-30T10:35:57;1012.94;;;26.86;25.90
46886;BME280;32622;48.202;11.326;2023-07-30T10:37:59;1012.84;;;27.30;26.06
46886;BME280;32622;48.202;11.326;2023-07-30T10:40:16;1012.94;;;26.65;25.86
46886;BME280;32622;48.202;11.326;2023-07-30T10:42:18;1012.86;;;26.86;26.24
46886;BME280;32622;48.202;11.326;2023-07-30T10:44:24;1012.85;;;26.97;25.78
46886;BME280;32622;48.202;11.326;2023-07-30T10:46:27;1012.76;;;27.23;25.79
46886;BME280;32622;48.202;11.326;2023-07-30T10:48:32;1012.79;;;26.98;25.89
46886;BME280;32622;48.202;11.326;2023-07-30T10:50:37;1012.58;;;28.00;25.92